sensor_id;sensor_type;location;lat;lon;timestamp;temperature;humidity
42261;DHT22;27926;48.062;7.474;2023-12-29T00:01:36;8.70;99.90
42261;DHT22;27926;48.062;7.474;2023-12-29T00:04:00;8.80;99.90
42261;DHT22;27926;48.062;7.474;2023-12-29T00:06:25;8.80;99.90
42261;DHT22;27926;48.062;7.474;2023-12-29T00:08:49;8.90;99.90
42261;DHT22;27926;48.062;7.474;2023-12-29T00:11:20;8.90;99.90
42261;DHT22;27926;48.062;7.474;2023-12-29T00:13:44;8.90;99.90
42261;DHT22;27926;48.062;7.474;2023-12-29T00:16:09;8.90;99.90
42261;DHT22;27926;48.062;7.474;2023-12-29T00:18:33;8.90;99.90
42261;DHT22;27926;48.062;7.474;2023-12-29T00:20:57;8.90;99.90
42261;DHT22;27926;48.062;7.474;2023-12-29T00:23:22;8.90;99.90
42261;DHT22;27926;48.062;7.474;2023-12-29T00:25:46;8.90;99.90
42261;DHT22;27926;48.062;7.474;2023-12-29T00:28:14;8.90;99.90
42261;DHT22;27926;48.062;7.474;2023-12-29T00:30:38;8.80;99.90
42261;DHT22;27926;48.062;7.474;2023-12-29T00:33:04;8.90;99.90
42261;DHT22;27926;48.062;7.474;2023-12-29T00:35:28;8.90;99.90
42261;DHT22;27926;48.062;7.474;2023-12-29T00:37:53;8.90;99.90
42261;DHT22;27926;48.062;7.474;2023-12-29T00:40:17;8.90;99.90
42261;DHT22;27926;48.062;7.474;2023-12-29T00:42:42;8.80;99.90
42261;DHT22;27926;48.062;7.474;2023-12-29T00:45:06;8.80;99.90
42261;DHT22;27926;48.062;7.474;2023-12-29T00:47:31;8.80;99.90
42261;DHT22;27926;48.062;7.474;2023-12-29T00:49:56;8.80;99.90
42261;DHT22;27926;48.062;7.474;2023-12-29T00:52:20;8.80;99.90
42261;DHT22;27926;48.062;7.474;2023-12-29T00:54:45;8.80;99.90
42261;DHT22;27926;48.062;7.474;2023-12-29T00:57:09;8.90;99.90
42261;DHT22;27926;48.062;7.474;2023-12-29T00:59:36;8.90;99.90
42261;DHT22;27926;48.062;7.474;2023-12-29T01:02:01;8.90;99.90
42261;DHT22;27926;48.062;7.474;2023-12-29T01:04:25;9.00;99.90
42261;DHT22;27926;48.062;7.474;2023-12-29T01:06:50;9.00;99.90
42261;DHT22;27926;48.062;7.474;2023-12-29T01:09:14;9.00;99.90
42261;DHT22;27926;48.062;7.474;2023-12-29T01:11:39;9.00;99.90
42261;DHT22;27926;48.062;7.474;2023-12-29T01:14:03;8.90;99.90
42261;DHT22;27926;48.062;7.474;2023-12-29T01:16:28;8.90;99.90
42261;DHT22;27926;48.062;7.474;2023-12-29T01:18:53;8.90;99.90
42261;DHT22;27926;48.062;7.474;2023-12-29T01:21:17;8.80;99.90
42261;DHT22;27926;48.062;7.474;2023-12-29T01:23:42;8.80;99.90
42261;DHT22;27926;48.062;7.474;2023-12-29T01:26:06;8.80;99.90
42261;DHT22;27926;48.062;7.474;2023-12-29T01:28:31;8.70;99.90
42261;DHT22;27926;48.062;7.474;2023-12-29T01:30:56;8.70;99.90
42261;DHT22;27926;48.062;7.474;2023-12-29T01:33:20;8.70;99.90
42261;DHT22;27926;48.062;7.474;2023-12-29T01:35:45;8.70;99.90
42261;DHT22;27926;48.062;7.474;2023-12-29T01:38:10;8.70;99.90
42261;DHT22;27926;48.062;7.474;2023-12-29T01:40:44;8.80;99.90
42261;DHT22;27926;48.062;7.474;2023-12-29T01:43:09;8.80;99.90
42261;DHT22;27926;48.062;7.474;2023-12-29T01:45:33;8.80;99.90
42261;DHT22;27926;48.062;7.474;2023-12-29T01:47:57;8.80;99.90
42261;DHT22;27926;48.062;7.474;2023-12-29T01:50:22;8.80;99.90
42261;DHT22;27926;48.062;7.474;2023-12-29T01:52:48;8.80;99.90
42261;DHT22;27926;48.062;7.474;2023-12-29T01:55:12;8.80;99.90
42261;DHT22;27926;48.062;7.474;2023-12-29T01:57:38;8.80;99.90
42261;DHT22;27926;48.062;7.474;2023-12-29T02:00:03;8.80;99.90
42261;DHT22;27926;48.062;7.474;2023-12-29T02:02:28;8.70;99.90
42261;DHT22;27926;48.062;7.474;2023-12-29T02:04:52;8.70;99.90
42261;DHT22;27926;48.062;7.474;2023-12-29T02:07:17;8.70;99.90
42261;DHT22;27926;48.062;7.474;2023-12-29T02:09:41;8.70;99.90
42261;DHT22;27926;48.062;7.474;2023-12-29T02:12:06;8.60;99.90
42261;DHT22;27926;48.062;7.474;2023-12-29T02:14:31;8.60;99.90
42261;DHT22;27926;48.062;7.474;2023-12-29T02:21:53;8.50;99.90
42261;DHT22;27926;48.062;7.474;2023-12-29T02:24:18;8.50;99.90
42261;DHT22;27926;48.062;7.474;2023-12-29T02:26:43;8.40;99.90
42261;DHT22;27926;48.062;7.474;2023-12-29T02:29:09;8.40;99.90
42261;DHT22;27926;48.062;7.474;2023-12-29T02:31:34;8.40;99.90
42261;DHT22;27926;48.062;7.474;2023-12-29T02:33:59;8.40;99.90
42261;DHT22;27926;48.062;7.474;2023-12-29T02:36:27;8.40;99.90
42261;DHT22;27926;48.062;7.474;2023-12-29T02:38:51;8.40;99.90
42261;DHT22;27926;48.062;7.474;2023-12-29T02:41:16;8.40;99.90
42261;DHT22;27926;48.062;7.474;2023-12-29T02:43:40;8.50;99.90
42261;DHT22;27926;48.062;7.474;2023-12-29T02:46:05;8.50;99.90
42261;DHT22;27926;48.062;7.474;2023-12-29T02:48:30;8.50;99.90
42261;DHT22;27926;48.062;7.474;2023-12-29T02:50:54;8.50;99.90
42261;DHT22;27926;48.062;7.474;2023-12-29T02:53:18;8.60;99.90
42261;DHT22;27926;48.062;7.474;2023-12-29T02:55:43;8.60;99.90
42261;DHT22;27926;48.062;7.474;2023-12-29T02:58:08;8.50;99.90
42261;DHT22;27926;48.062;7.474;2023-12-29T03:00:33;8.50;99.90
42261;DHT22;27926;48.062;7.474;2023-12-29T03:02:57;8.60;99.90
42261;DHT22;27926;48.062;7.474;2023-12-29T03:05:22;8.60;99.90
42261;DHT22;27926;48.062;7.474;2023-12-29T03:07:46;8.60;99.90
42261;DHT22;27926;48.062;7.474;2023-12-29T03:10:11;8.50;99.90
42261;DHT22;27926;48.062;7.474;2023-12-29T03:12:36;8.60;99.90
42261;DHT22;27926;48.062;7.474;2023-12-29T03:15:00;8.60;99.90
42261;DHT22;27926;48.062;7.474;2023-12-29T03:17:25;8.60;99.90
42261;DHT22;27926;48.062;7.474;2023-12-29T03:19:49;8.60;99.90
42261;DHT22;27926;48.062;7.474;2023-12-29T03:22:14;8.60;99.90
42261;DHT22;27926;48.062;7.474;2023-12-29T03:24:41;8.60;99.90
42261;DHT22;27926;48.062;7.474;2023-12-29T03:27:09;8.60;99.90
42261;DHT22;27926;48.062;7.474;2023-12-29T03:29:34;8.70;99.90
42261;DHT22;27926;48.062;7.474;2023-12-29T03:31:58;8.70;99.90
42261;DHT22;27926;48.062;7.474;2023-12-29T03:34:23;8.70;99.90
42261;DHT22;27926;48.062;7.474;2023-12-29T03:36:47;8.80;99.90
42261;DHT22;27926;48.062;7.474;2023-12-29T03:39:12;8.80;99.90
42261;DHT22;27926;48.062;7.474;2023-12-29T03:41:36;8.80;99.90
42261;DHT22;27926;48.062;7.474;2023-12-29T03:44:01;8.70;99.90
42261;DHT22;27926;48.062;7.474;2023-12-29T03:46:25;8.70;99.90
42261;DHT22;27926;48.062;7.474;2023-12-29T03:48:50;8.70;99.90
42261;DHT22;27926;48.062;7.474;2023-12-29T03:51:15;8.70;99.90
42261;DHT22;27926;48.062;7.474;2023-12-29T03:53:39;8.60;99.90
42261;DHT22;27926;48.062;7.474;2023-12-29T03:56:04;8.60;99.90
42261;DHT22;27926;48.062;7.474;2023-12-29T03:58:29;8.50;99.90
42261;DHT22;27926;48.062;7.474;2023-12-29T04:00:54;8.50;99.90
42261;DHT22;27926;48.062;7.474;2023-12-29T04:03:18;8.50;99.90
42261;DHT22;27926;48.062;7.474;2023-12-29T04:05:43;8.40;99.90
42261;DHT22;27926;48.062;7.474;2023-12-29T04:08:07;8.40;99.90
42261;DHT22;27926;48.062;7.474;2023-12-29T04:10:32;8.50;99.90
42261;DHT22;27926;48.062;7.474;2023-12-29T04:12:56;8.50;99.90
42261;DHT22;27926;48.062;7.474;2023-12-29T04:15:21;8.40;99.90
42261;DHT22;27926;48.062;7.474;2023-12-29T04:17:45;8.50;99.90
42261;DHT22;27926;48.062;7.474;2023-12-29T04:20:10;8.40;99.90
42261;DHT22;27926;48.062;7.474;2023-12-29T04:22:34;8.50;99.90
42261;DHT22;27926;48.062;7.474;2023-12-29T04:24:59;8.40;99.90
42261;DHT22;27926;48.062;7.474;2023-12-29T04:27:23;8.40;99.90
42261;DHT22;27926;48.062;7.474;2023-12-29T04:29:48;8.40;99.90
42261;DHT22;27926;48.062;7.474;2023-12-29T04:32:13;8.40;99.90
42261;DHT22;27926;48.062;7.474;2023-12-29T04:34:37;8.50;99.90
42261;DHT22;27926;48.062;7.474;2023-12-29T04:37:05;8.50;99.90
42261;DHT22;27926;48.062;7.474;2023-12-29T04:39:30;8.50;99.90
42261;DHT22;27926;48.062;7.474;2023-12-29T04:41:54;8.50;99.90
42261;DHT22;27926;48.062;7.474;2023-12-29T04:44:19;8.50;99.90
42261;DHT22;27926;48.062;7.474;2023-12-29T04:46:43;8.40;99.90
42261;DHT22;27926;48.062;7.474;2023-12-29T04:49:08;8.40;99.90
42261;DHT22;27926;48.062;7.474;2023-12-29T04:51:33;8.40;99.90
42261;DHT22;27926;48.062;7.474;2023-12-29T04:53:57;8.40;99.90
42261;DHT22;27926;48.062;7.474;2023-12-29T04:56:22;8.40;99.90
42261;DHT22;27926;48.062;7.474;2023-12-29T04:58:46;8.40;99.90
42261;DHT22;27926;48.062;7.474;2023-12-29T05:01:11;8.40;99.90
42261;DHT22;27926;48.062;7.474;2023-12-29T05:03:35;8.50;99.90
42261;DHT22;27926;48.062;7.474;2023-12-29T05:06:00;8.50;99.90
42261;DHT22;27926;48.062;7.474;2023-12-29T05:08:24;8.60;99.90
42261;DHT22;27926;48.062;7.474;2023-12-29T05:10:49;8.60;99.90
42261;DHT22;27926;48.062;7.474;2023-12-29T05:13:13;8.70;99.90
42261;DHT22;27926;48.062;7.474;2023-12-29T05:15:38;8.70;99.90
42261;DHT22;27926;48.062;7.474;2023-12-29T05:18:02;8.70;99.90
42261;DHT22;27926;48.062;7.474;2023-12-29T05:20:27;8.70;99.90
42261;DHT22;27926;48.062;7.474;2023-12-29T05:22:51;8.60;99.90
42261;DHT22;27926;48.062;7.474;2023-12-29T05:25:16;8.60;99.90
42261;DHT22;27926;48.062;7.474;2023-12-29T05:27:40;8.60;99.90
42261;DHT22;27926;48.062;7.474;2023-12-29T05:30:05;8.50;99.90
42261;DHT22;27926;48.062;7.474;2023-12-29T05:32:30;8.50;99.90
42261;DHT22;27926;48.062;7.474;2023-12-29T05:34:55;8.50;99.90
42261;DHT22;27926;48.062;7.474;2023-12-29T05:37:19;8.50;99.90
42261;DHT22;27926;48.062;7.474;2023-12-29T05:39:44;8.40;99.90
42261;DHT22;27926;48.062;7.474;2023-12-29T05:42:08;8.50;99.90
42261;DHT22;27926;48.062;7.474;2023-12-29T05:44:35;8.50;99.90
42261;DHT22;27926;48.062;7.474;2023-12-29T05:46:59;8.50;99.90
42261;DHT22;27926;48.062;7.474;2023-12-29T05:49:24;8.60;99.90
42261;DHT22;27926;48.062;7.474;2023-12-29T05:51:50;8.60;99.90
42261;DHT22;27926;48.062;7.474;2023-12-29T05:54:14;8.70;99.90
42261;DHT22;27926;48.062;7.474;2023-12-29T05:56:39;8.80;99.90
42261;DHT22;27926;48.062;7.474;2023-12-29T05:59:03;8.80;99.90
42261;DHT22;27926;48.062;7.474;2023-12-29T06:01:28;8.90;99.90
42261;DHT22;27926;48.062;7.474;2023-12-29T06:03:52;9.00;99.90
42261;DHT22;27926;48.062;7.474;2023-12-29T06:06:17;9.00;99.90
42261;DHT22;27926;48.062;7.474;2023-12-29T06:08:42;9.00;99.90
42261;DHT22;27926;48.062;7.474;2023-12-29T06:11:06;9.10;99.90
42261;DHT22;27926;48.062;7.474;2023-12-29T06:13:31;9.10;99.90
42261;DHT22;27926;48.062;7.474;2023-12-29T06:15:55;9.10;99.90
42261;DHT22;27926;48.062;7.474;2023-12-29T06:18:20;9.10;99.90
42261;DHT22;27926;48.062;7.474;2023-12-29T06:20:44;9.10;99.90
42261;DHT22;27926;48.062;7.474;2023-12-29T06:23:09;9.10;99.90
42261;DHT22;27926;48.062;7.474;2023-12-29T06:25:33;9.10;99.90
42261;DHT22;27926;48.062;7.474;2023-12-29T06:27:58;9.10;99.90
42261;DHT22;27926;48.062;7.474;2023-12-29T06:30:23;9.10;99.90
42261;DHT22;27926;48.062;7.474;2023-12-29T06:32:47;9.10;99.90
42261;DHT22;27926;48.062;7.474;2023-12-29T06:35:13;9.10;99.90
42261;DHT22;27926;48.062;7.474;2023-12-29T06:37:38;9.10;99.90
42261;DHT22;27926;48.062;7.474;2023-12-29T06:40:03;9.10;99.90
42261;DHT22;27926;48.062;7.474;2023-12-29T06:42:28;9.10;99.90
42261;DHT22;27926;48.062;7.474;2023-12-29T06:44:52;9.10;99.90
42261;DHT22;27926;48.062;7.474;2023-12-29T06:47:17;9.10;99.90
42261;DHT22;27926;48.062;7.474;2023-12-29T06:49:41;9.10;99.90
42261;DHT22;27926;48.062;7.474;2023-12-29T06:52:06;9.10;99.90
42261;DHT22;27926;48.062;7.474;2023-12-29T06:54:30;9.10;99.90
42261;DHT22;27926;48.062;7.474;2023-12-29T06:56:55;9.20;99.90
42261;DHT22;27926;48.062;7.474;2023-12-29T06:59:20;9.20;99.90
42261;DHT22;27926;48.062;7.474;2023-12-29T07:01:45;9.20;99.90
42261;DHT22;27926;48.062;7.474;2023-12-29T07:04:10;9.20;99.90
42261;DHT22;27926;48.062;7.474;2023-12-29T07:06:34;9.30;99.90
42261;DHT22;27926;48.062;7.474;2023-12-29T07:08:59;9.30;99.90
42261;DHT22;27926;48.062;7.474;2023-12-29T07:11:25;9.30;99.90
42261;DHT22;27926;48.062;7.474;2023-12-29T07:13:49;9.40;99.90
42261;DHT22;27926;48.062;7.474;2023-12-29T07:16:14;9.40;99.90
42261;DHT22;27926;48.062;7.474;2023-12-29T07:18:38;9.40;99.90
42261;DHT22;27926;48.062;7.474;2023-12-29T07:21:03;9.50;99.90
42261;DHT22;27926;48.062;7.474;2023-12-29T07:23:28;9.50;99.90
42261;DHT22;27926;48.062;7.474;2023-12-29T07:25:52;9.50;99.90
42261;DHT22;27926;48.062;7.474;2023-12-29T07:28:17;9.50;99.90
42261;DHT22;27926;48.062;7.474;2023-12-29T07:30:41;9.50;99.90
42261;DHT22;27926;48.062;7.474;2023-12-29T07:33:06;9.50;99.90
42261;DHT22;27926;48.062;7.474;2023-12-29T07:35:30;9.50;99.90
42261;DHT22;27926;48.062;7.474;2023-12-29T07:37:55;9.60;99.90
42261;DHT22;27926;48.062;7.474;2023-12-29T07:40:19;9.60;99.90
42261;DHT22;27926;48.062;7.474;2023-12-29T07:42:44;9.60;99.90
42261;DHT22;27926;48.062;7.474;2023-12-29T07:45:10;9.60;99.90
42261;DHT22;27926;48.062;7.474;2023-12-29T07:47:35;9.60;99.90
42261;DHT22;27926;48.062;7.474;2023-12-29T07:50:00;9.70;99.90
42261;DHT22;27926;48.062;7.474;2023-12-29T07:52:24;9.70;99.90
42261;DHT22;27926;48.062;7.474;2023-12-29T07:54:49;9.70;99.90
42261;DHT22;27926;48.062;7.474;2023-12-29T07:57:13;9.70;99.90
42261;DHT22;27926;48.062;7.474;2023-12-29T07:59:38;9.80;99.90
42261;DHT22;27926;48.062;7.474;2023-12-29T08:02:02;9.80;99.90
42261;DHT22;27926;48.062;7.474;2023-12-29T08:04:27;9.90;99.90
42261;DHT22;27926;48.062;7.474;2023-12-29T08:06:51;10.00;99.90
42261;DHT22;27926;48.062;7.474;2023-12-29T08:09:16;10.00;99.90
42261;DHT22;27926;48.062;7.474;2023-12-29T08:11:40;10.00;99.90
42261;DHT22;27926;48.062;7.474;2023-12-29T08:14:09;10.10;99.90
42261;DHT22;27926;48.062;7.474;2023-12-29T08:16:37;10.10;99.90
42261;DHT22;27926;48.062;7.474;2023-12-29T08:19:02;10.20;99.90
42261;DHT22;27926;48.062;7.474;2023-12-29T08:21:26;10.20;99.90
42261;DHT22;27926;48.062;7.474;2023-12-29T08:23:51;10.20;99.90
42261;DHT22;27926;48.062;7.474;2023-12-29T08:26:15;10.30;99.90
42261;DHT22;27926;48.062;7.474;2023-12-29T08:28:40;10.30;99.90
42261;DHT22;27926;48.062;7.474;2023-12-29T08:31:06;10.30;99.90
42261;DHT22;27926;48.062;7.474;2023-12-29T08:33:30;10.40;99.90
42261;DHT22;27926;48.062;7.474;2023-12-29T08:35:55;10.50;99.90
42261;DHT22;27926;48.062;7.474;2023-12-29T08:38:24;10.50;99.90
42261;DHT22;27926;48.062;7.474;2023-12-29T08:40:49;10.60;99.90
42261;DHT22;27926;48.062;7.474;2023-12-29T08:43:13;10.60;99.90
42261;DHT22;27926;48.062;7.474;2023-12-29T08:45:38;10.70;99.90
42261;DHT22;27926;48.062;7.474;2023-12-29T08:48:02;10.70;99.90
42261;DHT22;27926;48.062;7.474;2023-12-29T08:50:27;10.70;99.90
42261;DHT22;27926;48.062;7.474;2023-12-29T08:52:51;10.70;99.90
42261;DHT22;27926;48.062;7.474;2023-12-29T08:55:16;10.80;99.90
42261;DHT22;27926;48.062;7.474;2023-12-29T08:57:41;10.80;99.90
42261;DHT22;27926;48.062;7.474;2023-12-29T09:00:05;10.90;99.90
42261;DHT22;27926;48.062;7.474;2023-12-29T09:02:30;11.00;99.90
42261;DHT22;27926;48.062;7.474;2023-12-29T09:04:54;11.00;99.90
42261;DHT22;27926;48.062;7.474;2023-12-29T09:07:19;11.00;99.90
42261;DHT22;27926;48.062;7.474;2023-12-29T09:09:43;11.00;99.90
42261;DHT22;27926;48.062;7.474;2023-12-29T09:12:08;11.00;99.90
42261;DHT22;27926;48.062;7.474;2023-12-29T09:14:32;11.00;99.90
42261;DHT22;27926;48.062;7.474;2023-12-29T09:16:58;11.00;99.90
42261;DHT22;27926;48.062;7.474;2023-12-29T09:19:23;11.00;99.90
42261;DHT22;27926;48.062;7.474;2023-12-29T09:21:47;11.00;99.90
42261;DHT22;27926;48.062;7.474;2023-12-29T09:24:12;11.10;99.90
42261;DHT22;27926;48.062;7.474;2023-12-29T09:26:36;11.20;99.90
42261;DHT22;27926;48.062;7.474;2023-12-29T09:29:01;11.20;99.90
42261;DHT22;27926;48.062;7.474;2023-12-29T09:31:25;11.30;99.90
42261;DHT22;27926;48.062;7.474;2023-12-29T09:33:50;11.40;99.90
42261;DHT22;27926;48.062;7.474;2023-12-29T09:36:14;11.50;99.90
42261;DHT22;27926;48.062;7.474;2023-12-29T09:38:39;11.50;99.90
42261;DHT22;27926;48.062;7.474;2023-12-29T09:41:04;11.50;99.90
42261;DHT22;27926;48.062;7.474;2023-12-29T09:43:31;11.50;99.90
42261;DHT22;27926;48.062;7.474;2023-12-29T09:45:55;11.40;99.90
42261;DHT22;27926;48.062;7.474;2023-12-29T09:48:20;11.40;99.90
42261;DHT22;27926;48.062;7.474;2023-12-29T09:50:46;11.30;99.90
42261;DHT22;27926;48.062;7.474;2023-12-29T09:53:10;11.30;99.90
42261;DHT22;27926;48.062;7.474;2023-12-29T09:55:36;11.20;99.90
42261;DHT22;27926;48.062;7.474;2023-12-29T09:58:01;11.20;99.90
42261;DHT22;27926;48.062;7.474;2023-12-29T10:00:26;11.20;99.90
42261;DHT22;27926;48.062;7.474;2023-12-29T10:02:51;11.20;99.90
42261;DHT22;27926;48.062;7.474;2023-12-29T10:05:17;11.10;99.90
42261;DHT22;27926;48.062;7.474;2023-12-29T10:07:41;11.10;99.90
42261;DHT22;27926;48.062;7.474;2023-12-29T10:10:06;11.20;99.90
42261;DHT22;27926;48.062;7.474;2023-12-29T10:12:32;11.20;99.90
42261;DHT22;27926;48.062;7.474;2023-12-29T10:14:59;11.20;99.90
42261;DHT22;27926;48.062;7.474;2023-12-29T10:17:50;11.10;99.90
42261;DHT22;27926;48.062;7.474;2023-12-29T10:20:14;11.10;99.90
42261;DHT22;27926;48.062;7.474;2023-12-29T10:22:46;11.20;99.90
42261;DHT22;27926;48.062;7.474;2023-12-29T10:25:12;11.20;99.90
42261;DHT22;27926;48.062;7.474;2023-12-29T10:27:37;11.20;99.90
42261;DHT22;27926;48.062;7.474;2023-12-29T10:30:02;11.30;99.90
42261;DHT22;27926;48.062;7.474;2023-12-29T10:32:28;11.30;99.90
42261;DHT22;27926;48.062;7.474;2023-12-29T10:35:07;11.40;99.90
42261;DHT22;27926;48.062;7.474;2023-12-29T10:37:31;11.50;99.90
42261;DHT22;27926;48.062;7.474;2023-12-29T10:39:56;11.60;99.90
42261;DHT22;27926;48.062;7.474;2023-12-29T10:42:21;11.70;99.90
42261;DHT22;27926;48.062;7.474;2023-12-29T10:44:45;11.80;99.90
42261;DHT22;27926;48.062;7.474;2023-12-29T10:47:10;11.80;99.90
42261;DHT22;27926;48.062;7.474;2023-12-29T10:49:35;11.90;99.90
42261;DHT22;27926;48.062;7.474;2023-12-29T10:51:59;12.00;99.90
42261;DHT22;27926;48.062;7.474;2023-12-29T10:54:24;12.10;99.90
42261;DHT22;27926;48.062;7.474;2023-12-29T10:57:01;12.20;99.90
42261;DHT22;27926;48.062;7.474;2023-12-29T10:59:26;12.30;99.90
42261;DHT22;27926;48.062;7.474;2023-12-29T11:01:51;12.30;99.90
42261;DHT22;27926;48.062;7.474;2023-12-29T11:04:21;12.40;99.90
42261;DHT22;27926;48.062;7.474;2023-12-29T11:06:46;12.40;99.90
42261;DHT22;27926;48.062;7.474;2023-12-29T11:09:26;12.40;99.90
42261;DHT22;27926;48.062;7.474;2023-12-29T11:11:51;12.30;99.90
42261;DHT22;27926;48.062;7.474;2023-12-29T11:14:16;12.30;99.90
42261;DHT22;27926;48.062;7.474;2023-12-29T11:16:40;12.20;99.90
42261;DHT22;27926;48.062;7.474;2023-12-29T11:19:05;12.10;99.90
42261;DHT22;27926;48.062;7.474;2023-12-29T11:21:31;12.10;99.90
42261;DHT22;27926;48.062;7.474;2023-12-29T11:23:56;12.10;99.90
42261;DHT22;27926;48.062;7.474;2023-12-29T11:26:20;12.10;99.90
42261;DHT22;27926;48.062;7.474;2023-12-29T11:28:48;12.10;99.90
42261;DHT22;27926;48.062;7.474;2023-12-29T11:31:13;12.10;99.90
42261;DHT22;27926;48.062;7.474;2023-12-29T11:33:38;12.20;99.90
42261;DHT22;27926;48.062;7.474;2023-12-29T11:43:58;12.40;99.90
42261;DHT22;27926;48.062;7.474;2023-12-29T11:46:33;12.50;99.90
42261;DHT22;27926;48.062;7.474;2023-12-29T11:48:58;12.50;99.90
42261;DHT22;27926;48.062;7.474;2023-12-29T11:51:28;12.60;99.90
42261;DHT22;27926;48.062;7.474;2023-12-29T11:53:52;14.10;99.90
42261;DHT22;27926;48.062;7.474;2023-12-29T11:56:17;12.50;99.90
42261;DHT22;27926;48.062;7.474;2023-12-29T11:58:41;12.60;99.90
42261;DHT22;27926;48.062;7.474;2023-12-29T12:01:09;12.70;99.90
42261;DHT22;27926;48.062;7.474;2023-12-29T12:03:34;12.90;99.90
42261;DHT22;27926;48.062;7.474;2023-12-29T12:05:59;12.90;99.90
42261;DHT22;27926;48.062;7.474;2023-12-29T12:08:28;13.00;99.90
42261;DHT22;27926;48.062;7.474;2023-12-29T12:10:53;13.00;99.90
42261;DHT22;27926;48.062;7.474;2023-12-29T12:14:02;12.90;99.90
42261;DHT22;27926;48.062;7.474;2023-12-29T12:16:02;12.80;99.90
42261;DHT22;27926;48.062;7.474;2023-12-29T12:18:27;12.80;99.90
42261;DHT22;27926;48.062;7.474;2023-12-29T12:20:51;12.80;99.90
42261;DHT22;27926;48.062;7.474;2023-12-29T12:23:18;12.80;99.90
42261;DHT22;27926;48.062;7.474;2023-12-29T12:25:43;12.80;99.90
42261;DHT22;27926;48.062;7.474;2023-12-29T12:28:09;12.80;99.90
42261;DHT22;27926;48.062;7.474;2023-12-29T12:30:34;12.80;99.90
42261;DHT22;27926;48.062;7.474;2023-12-29T12:32:59;12.80;99.90
42261;DHT22;27926;48.062;7.474;2023-12-29T12:35:24;12.80;99.90
42261;DHT22;27926;48.062;7.474;2023-12-29T12:37:50;12.80;99.90
42261;DHT22;27926;48.062;7.474;2023-12-29T12:40:30;13.00;99.90
42261;DHT22;27926;48.062;7.474;2023-12-29T12:42:55;13.00;99.90
42261;DHT22;27926;48.062;7.474;2023-12-29T12:45:20;13.10;99.90
42261;DHT22;27926;48.062;7.474;2023-12-29T12:47:50;13.20;99.90
42261;DHT22;27926;48.062;7.474;2023-12-29T12:50:15;13.30;99.90
42261;DHT22;27926;48.062;7.474;2023-12-29T12:52:40;13.30;99.90
42261;DHT22;27926;48.062;7.474;2023-12-29T12:55:05;13.40;99.90
42261;DHT22;27926;48.062;7.474;2023-12-29T12:57:30;13.40;99.90
42261;DHT22;27926;48.062;7.474;2023-12-29T12:59:55;13.50;99.90
42261;DHT22;27926;48.062;7.474;2023-12-29T13:02:20;13.50;99.90
42261;DHT22;27926;48.062;7.474;2023-12-29T13:04:45;13.50;99.90
42261;DHT22;27926;48.062;7.474;2023-12-29T13:07:10;13.50;99.90
42261;DHT22;27926;48.062;7.474;2023-12-29T13:09:37;13.50;99.90
42261;DHT22;27926;48.062;7.474;2023-12-29T13:12:08;13.50;99.90
42261;DHT22;27926;48.062;7.474;2023-12-29T13:14:35;13.50;99.90
42261;DHT22;27926;48.062;7.474;2023-12-29T13:17:04;13.50;99.90
42261;DHT22;27926;48.062;7.474;2023-12-29T13:19:29;13.50;99.90
42261;DHT22;27926;48.062;7.474;2023-12-29T13:21:54;13.50;99.90
42261;DHT22;27926;48.062;7.474;2023-12-29T13:24:20;13.50;99.90
42261;DHT22;27926;48.062;7.474;2023-12-29T13:26:44;13.50;99.90
42261;DHT22;27926;48.062;7.474;2023-12-29T13:29:11;13.50;99.90
42261;DHT22;27926;48.062;7.474;2023-12-29T13:31:36;13.40;99.90
42261;DHT22;27926;48.062;7.474;2023-12-29T13:34:04;13.40;99.90
42261;DHT22;27926;48.062;7.474;2023-12-29T13:38:58;13.40;99.90
42261;DHT22;27926;48.062;7.474;2023-12-29T13:41:27;13.40;99.90
42261;DHT22;27926;48.062;7.474;2023-12-29T13:43:52;13.40;99.90
42261;DHT22;27926;48.062;7.474;2023-12-29T13:46:18;13.40;99.90
42261;DHT22;27926;48.062;7.474;2023-12-29T13:48:44;13.30;99.90
42261;DHT22;27926;48.062;7.474;2023-12-29T13:51:09;13.30;99.90
42261;DHT22;27926;48.062;7.474;2023-12-29T13:53:34;13.40;99.90
42261;DHT22;27926;48.062;7.474;2023-12-29T13:56:11;13.40;99.90
42261;DHT22;27926;48.062;7.474;2023-12-29T13:58:35;13.40;99.90
42261;DHT22;27926;48.062;7.474;2023-12-29T14:01:00;13.40;99.90
42261;DHT22;27926;48.062;7.474;2023-12-29T14:03:32;13.40;99.90
42261;DHT22;27926;48.062;7.474;2023-12-29T14:05:59;13.50;99.90
42261;DHT22;27926;48.062;7.474;2023-12-29T14:08:25;13.50;99.90
42261;DHT22;27926;48.062;7.474;2023-12-29T14:10:51;13.50;99.90
42261;DHT22;27926;48.062;7.474;2023-12-29T14:13:15;13.40;99.90
42261;DHT22;27926;48.062;7.474;2023-12-29T14:15:43;13.40;99.90
42261;DHT22;27926;48.062;7.474;2023-12-29T14:20:36;13.30;99.90
42261;DHT22;27926;48.062;7.474;2023-12-29T14:23:01;13.20;99.90
42261;DHT22;27926;48.062;7.474;2023-12-29T14:25:26;13.10;99.90
42261;DHT22;27926;48.062;7.474;2023-12-29T14:27:53;13.00;99.90
42261;DHT22;27926;48.062;7.474;2023-12-29T14:30:18;13.00;99.90
42261;DHT22;27926;48.062;7.474;2023-12-29T14:32:43;12.90;99.90
42261;DHT22;27926;48.062;7.474;2023-12-29T14:35:08;12.90;99.90
42261;DHT22;27926;48.062;7.474;2023-12-29T14:37:34;12.80;99.90
42261;DHT22;27926;48.062;7.474;2023-12-29T14:39:59;12.70;99.90
42261;DHT22;27926;48.062;7.474;2023-12-29T14:42:23;12.70;99.90
42261;DHT22;27926;48.062;7.474;2023-12-29T14:44:48;12.60;99.90
42261;DHT22;27926;48.062;7.474;2023-12-29T14:47:13;12.50;99.90
42261;DHT22;27926;48.062;7.474;2023-12-29T14:49:37;12.50;99.90
42261;DHT22;27926;48.062;7.474;2023-12-29T14:52:02;12.30;99.90
42261;DHT22;27926;48.062;7.474;2023-12-29T14:54:26;12.30;99.90
42261;DHT22;27926;48.062;7.474;2023-12-29T14:56:51;12.30;99.90
42261;DHT22;27926;48.062;7.474;2023-12-29T14:59:15;12.20;99.90
42261;DHT22;27926;48.062;7.474;2023-12-29T15:01:40;12.20;99.90
42261;DHT22;27926;48.062;7.474;2023-12-29T15:04:04;12.10;99.90
42261;DHT22;27926;48.062;7.474;2023-12-29T15:06:29;12.10;99.90
42261;DHT22;27926;48.062;7.474;2023-12-29T15:08:53;11.90;99.90
42261;DHT22;27926;48.062;7.474;2023-12-29T15:11:18;11.80;99.90
42261;DHT22;27926;48.062;7.474;2023-12-29T15:13:43;11.70;99.90
42261;DHT22;27926;48.062;7.474;2023-12-29T15:16:07;11.60;99.90
42261;DHT22;27926;48.062;7.474;2023-12-29T15:18:32;11.60;99.90
42261;DHT22;27926;48.062;7.474;2023-12-29T15:20:57;11.40;99.90
42261;DHT22;27926;48.062;7.474;2023-12-29T15:23:21;11.30;99.90
42261;DHT22;27926;48.062;7.474;2023-12-29T15:25:47;11.20;99.90
42261;DHT22;27926;48.062;7.474;2023-12-29T15:28:12;11.20;99.90
42261;DHT22;27926;48.062;7.474;2023-12-29T15:30:36;11.10;99.90
42261;DHT22;27926;48.062;7.474;2023-12-29T15:33:01;11.00;99.90
42261;DHT22;27926;48.062;7.474;2023-12-29T15:35:25;10.10;99.90
42261;DHT22;27926;48.062;7.474;2023-12-29T15:37:50;10.90;99.90
42261;DHT22;27926;48.062;7.474;2023-12-29T15:40:14;10.90;99.90
42261;DHT22;27926;48.062;7.474;2023-12-29T15:42:39;10.80;99.90
42261;DHT22;27926;48.062;7.474;2023-12-29T15:45:04;10.70;99.90